Time;durP1;ratioP1;P1;durP2;ratioP2;P2;SDS_P1;SDS_P2;PMS_P1;PMS_P2;Temp;Humidity;BMP_temperature;BMP_pressure;BME280_temperature;BME280_humidity;BME280_pressure;Samples;Min_cycle;Max_cycle;Signal;HPM_P1;HPM_P2
2023/05/06 00:01:19;;;;;;;11.80;8.50;;;;;;;11.96;72.42;100024.73;105895;1256;75698;-73
2023/05/06 00:03:46;;;;;;;14.70;8.80;;;;;;;12.34;69.45;100024.04;105863;1254;69263;-73
2023/05/06 00:06:13;;;;;;;12.00;7.20;;;;;;;12.18;69.37;100019.83;105873;1254;72006;-73
2023/05/06 00:08:40;;;;;;;6.80;5.40;;;;;;;12.38;68.06;100018.73;105776;1258;61336;-74
2023/05/06 00:11:07;;;;;;;5.00;4.30;;;;;;;11.22;75.09;100011.02;105952;1254;61256;-72
2023/05/06 00:13:34;;;;;;;5.70;5.00;;;;;;;8.37;99.45;99996.86;105812;1257;74261;-75
2023/05/06 00:16:01;;;;;;;4.80;4.40;;;;;;;10.69;86.45;100011.30;105975;1257;67915;-75
2023/05/06 00:18:28;;;;;;;6.60;5.10;;;;;;;11.20;80.08;100017.15;105767;1256;73531;-72
2023/05/06 00:20:54;;;;;;;5.40;4.60;;;;;;;11.16;78.44;100020.59;105742;1253;62278;-71
2023/05/06 00:23:22;;;;;;;4.60;4.20;;;;;;;9.78;90.23;100013.65;105713;1253;61341;-74
2023/05/06 00:25:48;;;;;;;4.80;4.30;;;;;;;10.83;83.51;100018.24;105834;1258;73624;-71
2023/05/06 00:28:15;;;;;;;5.00;4.50;;;;;;;11.22;79.48;100018.91;105611;1253;67912;-73
2023/05/06 00:30:42;;;;;;;5.60;4.70;;;;;;;11.42;77.16;100014.77;105707;1258;72527;-75
2023/05/06 00:33:09;;;;;;;5.00;4.60;;;;;;;11.83;74.04;100015.75;105675;1253;62313;-73
2023/05/06 00:35:36;;;;;;;6.60;5.10;;;;;;;11.56;75.44;100019.80;105779;1253;61250;-75
2023/05/06 00:38:14;;;;;;;6.60;4.60;;;;;;;11.74;73.99;100023.69;105681;1258;73865;-72
2023/05/06 00:40:41;;;;;;;7.10;5.20;;;;;;;11.98;72.18;100023.38;105782;1253;68701;-72
2023/05/06 00:43:08;;;;;;;5.10;4.60;;;;;;;12.07;71.03;100021.21;105686;1257;72643;-75
2023/05/06 00:45:36;;;;;;;5.40;4.90;;;;;;;12.11;71.13;100023.67;105680;1253;62008;-79
2023/05/06 00:48:03;;;;;;;5.40;4.80;;;;;;;12.45;68.44;100027.98;105630;1253;61444;-71
2023/05/06 00:50:32;;;;;;;5.80;5.30;;;;;;;12.51;67.55;100035.23;105947;1257;73619;-72
2023/05/06 00:52:59;;;;;;;5.60;5.20;;;;;;;12.57;66.66;100038.62;105764;1253;69826;-73
2023/05/06 00:55:26;;;;;;;5.00;4.60;;;;;;;12.56;66.48;100037.80;105621;1259;73197;-73
2023/05/06 00:57:53;;;;;;;5.50;5.00;;;;;;;12.70;65.30;100038.53;105783;1253;62231;-72
2023/05/06 01:00:20;;;;;;;8.40;6.90;;;;;;;12.75;64.85;100043.15;105681;1253;61110;-77
2023/05/06 01:02:47;;;;;;;12.10;8.00;;;;;;;12.72;64.64;100042.91;105668;1258;75681;-71
2023/05/06 01:05:16;;;;;;;23.00;11.20;;;;;;;12.69;65.20;100043.25;105970;1254;68849;-72
2023/05/06 01:08:17;;;;;;;27.60;13.50;;;;;;;12.71;65.25;100042.80;106052;1256;72684;-71
2023/05/06 01:10:46;;;;;;;19.20;9.30;;;;;;;12.49;66.24;100038.02;105903;1254;61272;-71
2023/05/06 01:13:20;;;;;;;23.20;10.90;;;;;;;12.02;69.57;100033.98;105934;1256;61326;-74
2023/05/06 01:15:52;;;;;;;20.00;10.80;;;;;;;11.81;71.59;100035.79;105721;1254;74363;-72
2023/05/06 01:18:24;;;;;;;20.20;9.60;;;;;;;11.74;71.96;100037.23;105961;1254;69806;-74
2023/05/06 01:20:52;;;;;;;15.30;8.60;;;;;;;11.85;71.05;100043.15;105923;1254;72743;-74
2023/05/06 01:23:19;;;;;;;10.30;7.40;;;;;;;12.02;69.61;100040.67;105654;1254;61265;-72
2023/05/06 01:25:46;;;;;;;8.80;6.10;;;;;;;11.78;70.97;100042.41;105902;1254;61221;-73
2023/05/06 01:28:13;;;;;;;6.40;5.80;;;;;;;11.90;69.56;100042.91;105551;1262;75054;-71
2023/05/06 01:30:50;;;;;;;6.20;5.60;;;;;;;11.97;68.88;100042.93;105811;1257;68884;-73
2023/05/06 01:33:28;;;;;;;9.10;5.60;;;;;;;12.01;68.33;100044.96;105881;1256;72607;-74
2023/05/06 01:36:02;;;;;;;6.60;5.30;;;;;;;12.39;65.64;100049.27;105810;1254;61306;-72
2023/05/06 01:38:41;;;;;;;5.70;5.10;;;;;;;12.58;64.08;100058.23;105981;1254;61289;-72
2023/05/06 01:41:14;;;;;;;6.80;5.50;;;;;;;12.68;62.74;100061.99;105623;1262;73709;-72
2023/05/06 01:43:46;;;;;;;5.90;5.20;;;;;;;12.64;62.93;100065.89;105902;1257;66847;-73
2023/05/06 01:46:18;;;;;;;7.70;6.20;;;;;;;12.69;62.58;100066.21;106530;1253;73740;-74
2023/05/06 01:48:45;;;;;;;13.80;7.60;;;;;;;12.96;60.87;100064.77;106702;1254;62226;-73
2023/05/06 01:51:12;;;;;;;14.20;8.80;;;;;;;12.99;60.53;100067.98;105901;1252;61212;-74
2023/05/06 01:53:39;;;;;;;13.20;7.40;;;;;;;13.07;59.94;100069.29;105919;1256;74660;-73
2023/05/06 01:56:06;;;;;;;9.70;6.90;;;;;;;12.97;60.38;100071.23;105808;1253;68869;-72
2023/05/06 01:58:33;;;;;;;6.80;5.70;;;;;;;13.04;60.26;100070.19;105776;1254;72531;-72
2023/05/06 02:00:59;;;;;;;6.70;5.90;;;;;;;12.38;63.65;100063.15;105753;1253;61279;-72
2023/05/06 02:03:26;;;;;;;17.20;8.50;;;;;;;12.29;65.27;100059.77;105844;1257;61241;-73
2023/05/06 02:05:54;;;;;;;19.60;10.80;;;;;;;12.34;64.74;100062.46;105890;1256;74974;-70
2023/05/06 02:08:21;;;;;;;22.80;11.10;;;;;;;12.37;64.53;100070.58;105801;1253;69646;-72
2023/05/06 02:10:49;;;;;;;13.40;8.80;;;;;;;12.25;65.05;100069.68;105898;1253;72910;-72
2023/05/06 02:13:18;;;;;;;14.80;7.80;;;;;;;11.98;66.95;100066.56;105865;1259;61207;-76
2023/05/06 02:15:45;;;;;;;7.80;6.40;;;;;;;11.91;67.43;100071.80;105829;1253;61343;-75
2023/05/06 02:18:16;;;;;;;9.10;5.70;;;;;;;11.94;66.98;100076.09;105835;1256;74754;-76
2023/05/06 02:20:43;;;;;;;7.30;5.90;;;;;;;12.03;66.41;100075.93;105908;1255;67438;-70
2023/05/06 02:23:14;;;;;;;10.00;6.80;;;;;;;12.21;65.09;100077.76;105987;1255;73558;-71
2023/05/06 02:25:41;;;;;;;6.10;5.60;;;;;;;12.28;64.15;100073.98;105928;1253;62109;-73
2023/05/06 02:28:08;;;;;;;5.70;5.20;;;;;;;8.76;85.17;100066.67;105544;1256;61312;-73
2023/05/06 02:30:35;;;;;;;5.20;4.70;;;;;;;6.03;100.00;100061.07;105563;1258;74771;-73
2023/05/06 02:33:02;;;;;;;5.40;5.00;;;;;;;7.82;100.00;100066.48;105656;1256;69405;-72
2023/05/06 02:35:29;;;;;;;7.10;4.90;;;;;;;6.05;100.00;100063.94;105487;1258;72045;-71
2023/05/06 02:37:56;;;;;;;5.10;4.70;;;;;;;5.87;100.00;100064.07;105654;1254;61891;-75
2023/05/06 02:40:23;;;;;;;5.40;4.90;;;;;;;5.73;100.00;100059.11;105692;1255;61330;-74
2023/05/06 02:42:50;;;;;;;4.70;4.20;;;;;;;6.64;100.00;100056.35;105603;1260;75034;-71
2023/05/06 02:45:17;;;;;;;7.80;4.90;;;;;;;9.31;100.00;100072.66;106082;1254;69088;-71
2023/05/06 02:47:43;;;;;;;5.80;5.20;;;;;;;9.98;97.20;100086.17;105878;1254;73502;-72
2023/05/06 02:50:11;;;;;;;5.80;5.30;;;;;;;10.32;91.41;100099.19;105765;1256;62282;-73
2023/05/06 02:52:38;;;;;;;6.90;5.60;;;;;;;10.26;89.79;100098.76;105745;1254;61373;-72
2023/05/06 02:55:05;;;;;;;5.60;5.00;;;;;;;10.35;88.00;100099.19;105787;1256;75763;-74
2023/05/06 02:57:32;;;;;;;6.30;5.70;;;;;;;10.73;82.20;100097.23;105758;1257;67644;-72
2023/05/06 02:59:59;;;;;;;5.50;5.00;;;;;;;10.74;81.26;100098.48;105745;1259;73683;-74
2023/05/06 03:02:26;;;;;;;6.90;5.20;;;;;;;10.92;79.44;100108.41;105738;1253;62288;-72
2023/05/06 03:04:53;;;;;;;5.80;5.20;;;;;;;11.03;77.94;100108.07;105642;1255;61255;-73
2023/05/06 03:07:20;;;;;;;5.30;4.80;;;;;;;11.04;76.65;100105.40;105634;1258;73999;-72
2023/05/06 03:09:47;;;;;;;5.20;4.70;;;;;;;11.11;75.61;100109.59;105541;1258;68763;-73
2023/05/06 03:12:15;;;;;;;5.40;4.90;;;;;;;10.89;76.42;100111.38;105560;1256;73404;-71
2023/05/06 03:14:42;;;;;;;4.50;4.20;;;;;;;10.78;76.79;100109.89;105612;1258;61413;-72
2023/05/06 03:17:09;;;;;;;6.10;4.80;;;;;;;11.02;74.79;100115.25;105553;1258;61355;-72
2023/05/06 03:19:36;;;;;;;4.80;4.40;;;;;;;11.25;72.43;100117.77;105559;1261;75527;-71
2023/05/06 03:22:04;;;;;;;4.30;3.80;;;;;;;11.41;70.62;100117.77;105604;1257;69573;-73
2023/05/06 03:24:32;;;;;;;6.10;4.60;;;;;;;11.34;70.70;100122.09;105737;1257;71505;-72
2023/05/06 03:27:01;;;;;;;6.00;5.50;;;;;;;11.39;69.25;100123.37;105664;1257;61510;-72
2023/05/06 03:29:28;;;;;;;5.30;4.80;;;;;;;11.44;69.18;100134.58;105546;1261;61426;-72
2023/05/06 03:31:55;;;;;;;4.90;4.40;;;;;;;11.48;68.04;100132.54;105547;1260;74028;-73
2023/05/06 03:34:23;;;;;;;4.90;4.50;;;;;;;11.41;68.28;100136.46;105715;1260;68876;-74
2023/05/06 03:36:50;;;;;;;6.70;5.00;;;;;;;11.17;70.23;100142.09;105500;1262;72271;-74
2023/05/06 03:39:17;;;;;;;7.40;5.40;;;;;;;11.38;69.25;100142.76;105488;1256;61473;-73
2023/05/06 03:41:45;;;;;;;13.60;4.20;;;;;;;11.67;67.00;100147.77;105582;1257;61278;-73
2023/05/06 03:44:12;;;;;;;9.70;4.40;;;;;;;11.63;65.82;100138.48;105761;1260;74142;-74
2023/05/06 03:46:40;;;;;;;6.20;4.40;;;;;;;11.93;63.75;100144.57;105535;1262;68119;-74
2023/05/06 03:49:08;;;;;;;4.70;4.20;;;;;;;12.24;60.61;100152.62;105494;1261;71904;-73
2023/05/06 03:51:36;;;;;;;;;;;;;;;12.53;59.66;100158.52;105646;1254;61277;-74
2023/05/06 03:54:03;;;;;;;5.20;4.70;;;;;;;12.29;59.09;100151.30;105759;1257;61242;-74
2023/05/06 03:56:31;;;;;;;5.60;4.70;;;;;;;12.59;57.57;100157.83;105796;1257;73828;-74
2023/05/06 03:58:58;;;;;;;4.00;3.70;;;;;;;12.22;58.36;100164.27;105828;1255;68517;-73
2023/05/06 04:01:25;;;;;;;5.30;4.80;;;;;;;8.21;90.67;100145.58;105971;1254;72026;-75
2023/05/06 04:03:53;;;;;;;4.60;4.20;;;;;;;7.74;99.87;100147.86;105785;1252;61345;-73
2023/05/06 04:06:20;;;;;;;9.20;4.50;;;;;;;9.47;87.86;100155.85;105914;1253;61233;-73
2023/05/06 04:08:47;;;;;;;19.00;5.90;;;;;;;10.09;77.92;100159.71;105965;1257;73543;-72
2023/05/06 04:11:15;;;;;;;5.40;4.40;;;;;;;9.75;80.28;100161.73;105816;1253;69711;-71
2023/05/06 04:13:42;;;;;;;4.60;4.20;;;;;;;8.49;91.56;100154.41;105871;1256;73531;-73
2023/05/06 04:16:13;;;;;;;8.30;4.70;;;;;;;8.69;91.41;100153.85;106056;1255;62304;-73
2023/05/06 04:18:43;;;;;;;3.90;3.50;;;;;;;9.60;78.31;100161.31;106118;1256;62331;-74
2023/05/06 04:21:11;;;;;;;4.30;3.90;;;;;;;8.23;90.80;100157.16;106052;1256;74726;-72
2023/05/06 04:23:41;;;;;;;3.90;3.20;;;;;;;8.33;92.52;100163.19;105906;1254;68204;-74
2023/05/06 04:26:10;;;;;;;4.50;4.10;;;;;;;8.46;90.19;100166.14;106104;1256;72275;-71
2023/05/06 04:28:38;;;;;;;4.80;3.90;;;;;;;10.01;79.90;100178.50;105776;1253;62140;-73
2023/05/06 04:31:07;;;;;;;4.70;3.50;;;;;;;11.06;68.27;100190.38;106148;1254;61251;-74
2023/05/06 04:33:40;;;;;;;4.30;3.90;;;;;;;11.06;64.93;100193.27;105720;1258;74779;-76
2023/05/06 04:36:10;;;;;;;5.40;3.50;;;;;;;11.25;63.13;100195.54;105582;1260;68947;-74
2023/05/06 04:38:39;;;;;;;5.70;3.70;;;;;;;11.64;60.82;100202.20;105626;1260;72734;-74
2023/05/06 04:41:06;;;;;;;4.40;4.00;;;;;;;12.28;57.83;100200.79;105616;1260;61332;-72
2023/05/06 04:43:33;;;;;;;7.40;4.50;;;;;;;12.74;55.58;100200.71;105606;1257;61298;-72
2023/05/06 04:46:07;;;;;;;6.30;3.70;;;;;;;13.07;52.67;100200.96;105757;1260;74667;-73
2023/05/06 04:48:35;;;;;;;4.50;4.00;;;;;;;13.12;51.80;100207.16;105679;1256;70011;-74
2023/05/06 04:51:06;;;;;;;4.50;3.60;;;;;;;13.21;51.34;100205.15;105731;1258;72370;-72
2023/05/06 04:53:33;;;;;;;7.30;4.20;;;;;;;13.67;49.92;100212.03;105581;1260;61290;-73
2023/05/06 04:56:00;;;;;;;6.20;3.60;;;;;;;14.06;48.62;100212.58;106944;1259;61158;-73
2023/05/06 04:58:27;;;;;;;5.40;3.50;;;;;;;13.93;48.02;100211.85;106186;1257;74620;-78
2023/05/06 05:00:55;;;;;;;6.70;4.10;;;;;;;14.15;47.74;100211.39;105824;1259;68816;-75
2023/05/06 05:03:22;;;;;;;5.30;4.60;;;;;;;14.08;47.59;100206.66;105820;1259;72751;-75
2023/05/06 05:05:52;;;;;;;5.00;4.30;;;;;;;14.34;47.33;100216.52;105675;1260;61544;-74
2023/05/06 05:08:20;;;;;;;8.30;7.00;;;;;;;15.00;45.84;100223.23;105876;1257;61253;-74
2023/05/06 05:10:47;;;;;;;4.10;3.70;;;;;;;15.52;44.78;100228.82;105763;1258;75685;-75
2023/05/06 05:13:16;;;;;;;4.80;4.10;;;;;;;15.17;44.39;100229.59;106051;1252;68850;-74
2023/05/06 05:15:44;;;;;;;4.60;3.60;;;;;;;14.99;44.43;100229.55;105796;1259;71730;-74
2023/05/06 05:18:11;;;;;;;5.40;3.60;;;;;;;14.83;44.92;100234.10;105881;1254;61427;-77
2023/05/06 05:20:39;;;;;;;5.90;3.80;;;;;;;14.85;44.83;100236.38;105857;1254;61256;-76
2023/05/06 05:23:07;;;;;;;6.20;3.50;;;;;;;14.96;44.53;100240.95;105845;1257;75746;-72
2023/05/06 05:25:35;;;;;;;5.80;3.80;;;;;;;14.76;43.32;100242.07;105848;1259;67190;-74
2023/05/06 05:28:03;;;;;;;8.00;4.20;;;;;;;14.90;43.24;100243.04;105332;1263;73146;-74
2023/05/06 05:30:31;;;;;;;3.70;3.40;;;;;;;15.10;42.27;100245.27;105917;1259;61371;-76
2023/05/06 05:32:58;;;;;;;6.40;4.40;;;;;;;15.12;42.69;100240.83;105818;1254;61375;-72
2023/05/06 05:35:26;;;;;;;5.20;3.40;;;;;;;15.48;41.66;100244.30;105759;1258;73955;-75
2023/05/06 05:37:53;;;;;;;5.60;3.70;;;;;;;15.40;40.48;100244.88;106198;1255;69800;-74
2023/05/06 05:40:21;;;;;;;19.50;9.90;;;;;;;15.54;40.23;100244.34;105976;1255;72748;-73
2023/05/06 05:42:50;;;;;;;34.50;17.70;;;;;;;15.60;39.21;100248.69;106132;1257;62246;-77
2023/05/06 05:45:22;;;;;;;14.50;7.10;;;;;;;15.43;39.10;100247.53;106067;1257;61333;-74
2023/05/06 05:47:49;;;;;;;3.70;3.30;;;;;;;15.47;39.52;100242.29;106088;1256;74184;-74
2023/05/06 05:50:16;;;;;;;3.90;3.30;;;;;;;15.57;38.35;100238.99;106021;1258;68289;-76
2023/05/06 05:52:44;;;;;;;5.30;3.60;;;;;;;15.84;37.46;100244.69;105954;1256;72856;-76
2023/05/06 05:55:12;;;;;;;4.90;4.10;;;;;;;15.69;36.60;100243.02;105926;1259;61364;-75
2023/05/06 05:57:38;;;;;;;3.50;3.20;;;;;;;15.64;36.61;100240.52;105914;1253;61334;-76
2023/05/06 06:00:06;;;;;;;6.60;3.40;;;;;;;15.92;35.82;100243.02;105922;1257;73741;-75
2023/05/06 06:02:43;;;;;;;7.30;2.90;;;;;;;16.28;34.14;100248.05;105593;1257;68695;-75
2023/05/06 06:05:11;;;;;;;4.90;3.30;;;;;;;16.19;33.15;100251.48;105937;1254;73343;-74
2023/05/06 06:07:38;;;;;;;6.70;4.20;;;;;;;16.10;33.04;100244.36;106069;1256;61217;-74
2023/05/06 06:10:06;;;;;;;8.10;5.40;;;;;;;15.94;33.00;100244.05;106071;1257;61234;-74
2023/05/06 06:12:33;;;;;;;11.10;6.20;;;;;;;16.03;33.05;100250.00;106093;1257;74691;-75
2023/05/06 06:15:02;;;;;;;6.30;3.90;;;;;;;16.29;33.28;100244.86;106066;1257;67426;-75
2023/05/06 06:17:30;;;;;;;7.10;4.20;;;;;;;16.21;32.93;100247.74;106103;1258;71987;-77
2023/05/06 06:19:58;;;;;;;13.40;7.80;;;;;;;16.17;33.00;100246.67;106147;1258;62289;-75
2023/05/06 06:22:25;;;;;;;23.60;14.60;;;;;;;16.08;32.54;100237.58;105878;1259;61323;-75
2023/05/06 06:24:53;;;;;;;6.80;4.80;;;;;;;16.39;33.07;100247.65;106061;1257;75774;-75
2023/05/06 06:27:20;;;;;;;12.70;7.30;;;;;;;16.75;32.76;100243.78;106003;1257;67691;-74
2023/05/06 06:29:50;;;;;;;5.70;3.40;;;;;;;16.87;31.45;100245.05;105853;1259;72080;-76
2023/05/06 06:32:17;;;;;;;21.90;12.30;;;;;;;16.97;31.43;100244.52;105849;1260;61390;-74
2023/05/06 06:34:44;;;;;;;6.10;3.80;;;;;;;16.61;31.06;100243.08;105866;1254;61214;-71
2023/05/06 06:37:11;;;;;;;70.80;40.60;;;;;;;16.57;31.12;100234.58;105949;1256;75500;-76
2023/05/06 06:39:38;;;;;;;37.50;19.60;;;;;;;16.96;31.25;100248.95;106123;1254;69788;-77
2023/05/06 06:42:08;;;;;;;9.40;5.20;;;;;;;17.48;30.36;100246.05;106146;1256;72108;-76
2023/05/06 06:44:50;;;;;;;4.40;3.40;;;;;;;17.32;29.66;100247.23;105831;1259;61253;-77
2023/05/06 06:47:18;;;;;;;5.20;2.50;;;;;;;17.25;29.76;100248.15;105812;1254;61176;-77
2023/05/06 06:49:45;;;;;;;6.20;2.40;;;;;;;17.12;29.66;100246.89;105880;1254;73421;-74
2023/05/06 06:52:12;;;;;;;13.30;6.50;;;;;;;17.57;29.39;100251.17;106049;1253;67786;-75
2023/05/06 06:54:39;;;;;;;9.30;3.30;;;;;;;18.11;28.74;100256.77;105867;1253;73825;-73
2023/05/06 06:57:06;;;;;;;8.30;3.20;;;;;;;18.08;28.07;100261.86;105905;1253;61226;-76
2023/05/06 06:59:33;;;;;;;5.00;3.00;;;;;;;18.20;27.39;100255.55;105883;1258;61340;-76
2023/05/06 07:02:01;;;;;;;5.00;4.10;;;;;;;18.10;27.07;100262.66;105876;1257;75112;-75
2023/05/06 07:04:28;;;;;;;4.10;3.00;;;;;;;17.75;26.89;100260.77;106004;1256;69351;-76
2023/05/06 07:06:55;;;;;;;39.00;4.90;;;;;;;17.77;27.22;100262.06;106010;1257;72761;-73
2023/05/06 07:09:23;;;;;;;4.10;2.60;;;;;;;17.72;27.31;100261.70;105962;1254;61273;-73
2023/05/06 07:11:49;;;;;;;6.70;2.40;;;;;;;17.77;26.73;100249.68;105690;1256;61148;-72
2023/05/06 07:14:16;;;;;;;3.30;2.40;;;;;;;17.76;26.01;100259.35;105857;1256;75038;-75
2023/05/06 07:16:43;;;;;;;24.20;12.80;;;;;;;18.01;25.42;100266.20;105852;1258;68435;-74
2023/05/06 07:19:13;;;;;;;7.00;4.80;;;;;;;17.99;25.16;100264.53;106093;1258;72865;-75
2023/05/06 07:21:39;;;;;;;4.60;3.00;;;;;;;18.04;24.69;100261.73;106062;1254;61151;-74
2023/05/06 07:24:07;;;;;;;8.60;4.60;;;;;;;17.93;25.11;100271.13;106050;1257;61321;-74
2023/05/06 07:26:36;;;;;;;4.00;2.80;;;;;;;18.17;25.16;100272.95;106042;1257;75683;-74
2023/05/06 07:29:03;;;;;;;5.10;2.50;;;;;;;18.51;24.90;100272.98;105874;1255;68698;-71
2023/05/06 07:31:32;;;;;;;4.50;2.40;;;;;;;18.55;24.51;100281.09;105780;1255;72811;-75
2023/05/06 07:33:59;;;;;;;4.50;2.60;;;;;;;18.62;25.29;100282.32;105889;1257;61251;-75
2023/05/06 07:36:26;;;;;;;7.60;2.30;;;;;;;19.29;24.39;100285.78;105879;1254;61324;-74
2023/05/06 07:38:53;;;;;;;7.00;2.60;;;;;;;19.37;24.04;100284.33;105881;1257;74657;-73
2023/05/06 07:41:20;;;;;;;4.60;2.70;;;;;;;19.80;23.65;100287.66;105860;1257;66709;-74
2023/05/06 07:43:46;;;;;;;2.80;2.50;;;;;;;19.72;22.64;100290.44;105755;1257;71557;-74
2023/05/06 07:46:13;;;;;;;2.40;2.00;;;;;;;19.30;22.55;100288.77;105881;1255;61201;-74
2023/05/06 07:48:40;;;;;;;2.40;2.20;;;;;;;19.65;22.98;100296.30;105693;1257;61228;-73
2023/05/06 07:51:07;;;;;;;4.40;2.70;;;;;;;20.04;22.29;100298.93;105928;1257;74867;-74
2023/05/06 07:53:36;;;;;;;13.30;3.10;;;;;;;19.68;22.21;100298.16;106076;1257;69747;-75
2023/05/06 07:56:03;;;;;;;3.20;2.40;;;;;;;19.56;22.38;100296.85;105833;1260;71799;-77
2023/05/06 07:58:31;;;;;;;11.20;3.20;;;;;;;19.09;22.42;100291.20;106142;1254;61270;-74
2023/05/06 08:00:58;;;;;;;4.20;2.30;;;;;;;19.37;22.41;100300.20;106032;1254;61260;-75
2023/05/06 08:03:25;;;;;;;7.80;2.70;;;;;;;19.47;21.94;100299.80;106725;1258;74564;-76
2023/05/06 08:05:54;;;;;;;2.80;2.00;;;;;;;19.23;22.29;100298.73;106707;1257;69816;-74
2023/05/06 08:08:21;;;;;;;6.50;2.50;;;;;;;18.92;22.58;100292.17;106164;1257;72601;-74
2023/05/06 08:10:48;;;;;;;7.60;2.80;;;;;;;19.26;22.62;100299.12;106106;1254;61254;-75
2023/05/06 08:13:15;;;;;;;4.80;2.40;;;;;;;19.96;22.02;100304.61;106184;1252;61365;-75
2023/05/06 08:15:43;;;;;;;3.80;2.40;;;;;;;20.24;21.53;100311.21;106161;1257;74789;-74
2023/05/06 08:18:10;;;;;;;4.20;2.50;;;;;;;20.14;20.75;100307.20;105765;1260;68751;-76
2023/05/06 08:20:50;;;;;;;7.60;2.30;;;;;;;19.86;20.94;100308.17;106180;1254;72731;-75
2023/05/06 08:23:17;;;;;;;2.30;2.10;;;;;;;20.40;20.95;100310.56;106198;1254;62314;-76
2023/05/06 08:25:44;;;;;;;2.40;2.10;;;;;;;20.64;20.67;100312.59;106035;1257;62278;-73
2023/05/06 08:28:12;;;;;;;;;;;;;;;20.66;20.33;100312.56;105474;1265;75112;-74
2023/05/06 08:30:39;;;;;;;2.30;2.10;;;;;;;20.41;20.18;100313.77;105734;1256;67771;-75
2023/05/06 08:33:06;;;;;;;3.90;2.50;;;;;;;20.56;20.35;100308.80;105767;1260;73779;-75
2023/05/06 08:35:32;;;;;;;10.00;3.60;;;;;;;20.60;20.29;100305.35;105796;1259;61457;-75
2023/05/06 08:37:59;;;;;;;9.10;5.40;;;;;;;20.42;19.77;100315.98;105811;1261;61600;-74
2023/05/06 08:40:26;;;;;;;4.30;2.20;;;;;;;20.63;19.78;100316.59;105501;1265;74339;-75
2023/05/06 08:42:54;;;;;;;3.00;2.30;;;;;;;20.67;19.23;100317.23;105374;1257;68705;-75
2023/05/06 08:45:21;;;;;;;10.60;3.40;;;;;;;20.69;19.53;100323.85;105762;1257;71676;-75
2023/05/06 08:47:47;;;;;;;6.20;3.30;;;;;;;20.73;19.17;100320.70;105733;1257;61310;-73
2023/05/06 08:50:15;;;;;;;3.30;2.90;;;;;;;20.59;19.43;100321.52;105668;1263;61159;-74
2023/05/06 08:52:42;;;;;;;2.90;2.30;;;;;;;20.78;19.46;100318.05;105760;1260;74726;-76
2023/05/06 08:55:09;;;;;;;8.00;2.40;;;;;;;20.74;19.04;100320.91;105759;1260;68813;-76
2023/05/06 08:57:37;;;;;;;4.00;3.30;;;;;;;20.92;19.27;100320.05;105537;1263;72395;-75
2023/05/06 09:00:05;;;;;;;2.00;1.80;;;;;;;20.97;19.08;100325.37;105850;1254;61272;-75
2023/05/06 09:02:32;;;;;;;;;;;;;;;20.86;18.69;100322.48;105770;1254;150088;-74
2023/05/06 09:04:59;;;;;;;4.20;2.10;;;;;;;20.99;18.82;100328.15;105885;1257;72738;-74
2023/05/06 09:07:26;;;;;;;2.50;2.10;;;;;;;20.90;18.76;100327.19;105834;1254;68114;-75
2023/05/06 09:09:53;;;;;;;2.80;1.90;;;;;;;21.16;18.80;100318.64;105829;1259;72774;-77
2023/05/06 09:12:20;;;;;;;6.10;2.20;;;;;;;21.21;18.17;100319.61;106091;1254;61250;-73
2023/05/06 09:14:48;;;;;;;2.20;2.00;;;;;;;21.08;18.15;100314.22;105932;1252;61100;-73
2023/05/06 09:17:26;;;;;;;3.60;1.90;;;;;;;21.05;17.75;100319.52;105991;1256;74025;-75
2023/05/06 09:19:55;;;;;;;2.50;2.10;;;;;;;21.44;17.20;100314.10;106001;1257;68793;-75
2023/05/06 09:22:24;;;;;;;6.00;2.70;;;;;;;21.28;17.85;100309.38;105861;1257;71380;-74
2023/05/06 09:24:55;;;;;;;4.40;2.30;;;;;;;21.64;18.06;100307.49;106001;1253;61218;-74
2023/05/06 09:27:26;;;;;;;4.90;2.60;;;;;;;21.73;17.57;100307.92;105922;1260;61346;-76
2023/05/06 09:30:07;;;;;;;3.30;2.10;;;;;;;17.23;20.67;100289.05;105912;1260;74313;-75
2023/05/06 09:32:35;;;;;;;5.10;2.30;;;;;;;14.87;22.66;100284.75;106020;1254;69122;-75
2023/05/06 09:35:07;;;;;;;5.70;2.50;;;;;;;14.55;23.33;100277.63;105756;1254;73408;-74
2023/05/06 09:37:35;;;;;;;2.30;2.00;;;;;;;14.43;23.78;100280.62;106076;1257;61234;-73
2023/05/06 09:40:02;;;;;;;4.60;2.00;;;;;;;14.54;23.54;100286.85;106061;1254;61251;-76
2023/05/06 09:42:29;;;;;;;2.50;2.30;;;;;;;14.41;23.47;100282.98;106068;1256;75739;-75
2023/05/06 09:44:58;;;;;;;8.00;2.10;;;;;;;15.70;22.09;100285.74;106026;1254;68662;-76
2023/05/06 09:47:34;;;;;;;2.20;1.90;;;;;;;16.87;21.51;100293.34;105711;1259;72574;-76
2023/05/06 09:50:02;;;;;;;4.50;2.20;;;;;;;15.47;22.14;100288.09;105954;1254;62288;-73
2023/05/06 09:52:29;;;;;;;5.70;2.30;;;;;;;16.01;22.14;100285.53;105953;1254;61427;-74
2023/05/06 09:54:56;;;;;;;7.80;2.10;;;;;;;17.09;21.20;100296.16;105665;1256;73819;-76
2023/05/06 09:57:24;;;;;;;6.80;2.40;;;;;;;17.46;20.85;100293.38;105914;1257;68692;-76
2023/05/06 09:59:51;;;;;;;3.90;2.00;;;;;;;17.31;21.05;100288.30;105796;1258;72946;-76
2023/05/06 10:02:18;;;;;;;4.30;2.50;;;;;;;16.81;21.46;100283.48;105862;1255;61101;-76
2023/05/06 10:04:45;;;;;;;3.60;2.30;;;;;;;17.40;21.73;100283.02;105814;1257;61131;-74
2023/05/06 10:07:12;;;;;;;10.30;2.90;;;;;;;17.97;22.07;100281.39;104969;1254;1002560;-75
2023/05/06 10:09:40;;;;;;;4.80;2.50;;;;;;;18.54;21.27;100283.30;105709;1254;68959;-75
2023/05/06 10:12:07;;;;;;;3.10;2.20;;;;;;;18.37;20.28;100283.30;105905;1257;73498;-75
2023/05/06 10:14:35;;;;;;;4.70;2.50;;;;;;;16.64;21.74;100274.40;105742;1254;61335;-75
2023/05/06 10:17:07;;;;;;;4.90;2.30;;;;;;;16.39;21.47;100279.73;105597;1261;61138;-75
2023/05/06 10:19:34;;;;;;;3.20;2.10;;;;;;;16.03;21.89;100281.10;105739;1258;74659;-76
2023/05/06 10:22:42;;;;;;;4.80;2.50;;;;;;;17.67;20.84;100281.70;105819;1253;69932;-75
2023/05/06 10:25:15;;;;;;;4.30;2.60;;;;;;;18.12;20.51;100281.15;105907;1254;71903;-77
2023/05/06 10:27:42;;;;;;;4.30;2.30;;;;;;;18.16;20.02;100272.44;105839;1254;61363;-75
2023/05/06 10:30:10;;;;;;;6.70;2.50;;;;;;;18.57;20.75;100274.12;105679;1253;61244;-76
2023/05/06 10:32:41;;;;;;;8.60;2.10;;;;;;;18.29;20.15;100275.25;105972;1257;74825;-79
2023/05/06 10:35:41;;;;;;;2.40;2.00;;;;;;;18.20;20.17;100274.20;105887;1257;67797;-74
2023/05/06 10:38:26;;;;;;;10.00;2.70;;;;;;;18.25;20.01;100280.81;105460;1261;72653;-74
2023/05/06 10:40:53;;;;;;;3.40;2.00;;;;;;;18.74;19.46;100281.55;104996;1261;61344;-76
2023/05/06 10:43:25;;;;;;;4.70;2.90;;;;;;;18.86;19.46;100276.47;105223;1261;61279;-76
2023/05/06 10:45:59;;;;;;;2.50;2.00;;;;;;;18.85;18.94;100276.96;105229;1267;74850;-77
2023/05/06 10:48:27;;;;;;;3.10;2.70;;;;;;;18.77;19.20;100266.08;105247;1261;69405;-73
2023/05/06 10:51:12;;;;;;;2.70;2.10;;;;;;;18.29;19.62;100267.95;105230;1261;72690;-75
2023/05/06 10:54:05;;;;;;;5.20;2.40;;;;;;;18.15;20.29;100263.31;105298;1261;61220;-75
2023/05/06 10:56:34;;;;;;;11.50;2.70;;;;;;;18.51;20.62;100255.04;105344;1261;61182;-75
2023/05/06 10:59:08;;;;;;;2.50;2.30;;;;;;;18.78;20.46;100250.92;105442;1261;73370;-77
2023/05/06 11:01:39;;;;;;;2.80;2.40;;;;;;;18.59;20.40;100251.03;105459;1264;68848;-75
2023/05/06 11:04:10;;;;;;;4.60;2.40;;;;;;;18.47;20.07;100256.45;105157;1267;72385;-75
2023/05/06 11:06:41;;;;;;;3.10;2.00;;;;;;;18.50;19.57;100252.61;105316;1265;61240;-76
2023/05/06 11:09:18;;;;;;;5.90;2.80;;;;;;;18.90;19.41;100251.78;105241;1260;61333;-76
2023/05/06 11:12:04;;;;;;;8.20;2.50;;;;;;;18.97;19.64;100246.31;105769;1267;74839;-74
2023/05/06 11:14:35;;;;;;;18.40;4.60;;;;;;;19.06;19.18;100248.96;106543;1254;68794;-73
2023/05/06 11:17:03;;;;;;;2.40;2.20;;;;;;;19.31;19.35;100251.16;105848;1253;72716;-74
2023/05/06 11:19:36;;;;;;;4.50;2.80;;;;;;;19.55;19.12;100253.84;105863;1253;61415;-75
2023/05/06 11:22:04;;;;;;;5.10;2.60;;;;;;;19.52;19.47;100250.45;106087;1253;61158;-77
2023/05/06 11:24:41;;;;;;;2.70;2.30;;;;;;;19.50;19.36;100248.41;106052;1257;74927;-74